Time;durP1;ratioP1;P1;durP2;ratioP2;P2;SDS_P1;SDS_P2;PMS_P1;PMS_P2;Temp;Humidity;BMP_temperature;BMP_pressure;BME280_temperature;BME280_humidity;BME280_pressure;Samples;Min_cycle;Max_cycle;Signal;HPM_P1;HPM_P2
2022/05/02 08:18:02;;;;;;;18.52;8.68;;;;;;;13.79;79.05;101579.63;5084807;28;20179;-77
2022/05/02 08:20:39;;;;;;;22.10;10.35;;;;;;;13.97;76.21;101580.41;5080510;28;20048;-79
2022/05/02 08:29:34;;;;;;;17.42;8.90;;;;;;;14.48;72.11;101578.72;5076665;28;20095;-76
2022/05/02 08:32:10;;;;;;;19.90;9.45;;;;;;;14.58;70.69;101577.88;5066332;28;20136;-77
2022/05/02 08:34:40;;;;;;;17.08;8.15;;;;;;;14.74;70.39;101575.44;5075934;28;20497;-77
2022/05/02 08:37:09;;;;;;;18.40;8.25;;;;;;;14.86;68.68;101579.75;5070410;28;20820;-77
2022/05/02 08:39:52;;;;;;;18.17;9.55;;;;;;;14.97;69.27;101577.72;5075216;28;20592;-76
2022/05/02 08:42:18;;;;;;;20.25;9.40;;;;;;;15.13;69.58;101580.81;5074835;28;20048;-76
2022/05/02 08:44:57;;;;;;;18.13;9.90;;;;;;;15.30;69.75;101571.53;5075724;28;20446;-76
2022/05/02 08:47:48;;;;;;;17.42;7.70;;;;;;;15.43;66.17;101569.88;5066353;28;20497;-77
2022/05/02 08:50:27;;;;;;;18.45;8.82;;;;;;;15.48;64.66;101561.88;5075359;28;20048;-75
2022/05/02 08:52:57;;;;;;;19.10;10.45;;;;;;;15.68;65.35;101572.44;5071827;28;20087;-76
2022/05/02 08:55:44;;;;;;;19.20;9.02;;;;;;;15.80;64.29;101564.41;5076766;28;20139;-75
2022/05/02 08:58:37;;;;;;;20.05;9.02;;;;;;;15.93;63.85;101561.88;5071929;28;20591;-77
2022/05/02 09:01:04;;;;;;;18.00;8.07;;;;;;;16.06;63.50;101568.53;5067126;28;20048;-75
2022/05/02 09:03:34;;;;;;;23.27;8.70;;;;;;;16.10;62.40;101563.72;5076701;28;20135;-75
2022/05/02 09:06:03;;;;;;;17.77;7.75;;;;;;;16.14;60.83;101565.25;5074728;28;20074;-76
2022/05/02 09:08:57;;;;;;;19.60;8.38;;;;;;;16.25;60.37;101554.75;5081153;28;20052;-77
2022/05/02 09:11:54;;;;;;;22.30;11.00;;;;;;;16.33;60.86;101555.47;5069574;28;20053;-77
2022/05/02 09:14:51;;;;;;;19.83;8.18;;;;;;;16.40;59.30;101555.41;5080371;28;20131;-76
2022/05/02 09:17:35;;;;;;;19.50;8.75;;;;;;;16.60;60.52;101548.78;5090735;28;20043;-78
2022/05/02 09:20:15;;;;;;;16.25;8.25;;;;;;;16.69;60.42;101553.84;5095021;28;20071;-77
2022/05/02 09:23:30;;;;;;;17.73;8.57;;;;;;;16.81;58.72;101545.69;5097934;28;20288;-78
2022/05/02 09:26:02;;;;;;;17.30;8.30;;;;;;;17.02;59.68;101544.63;5089488;28;20052;-78
2022/05/02 09:28:38;;;;;;;18.10;8.32;;;;;;;17.05;56.94;101544.56;5080247;28;20048;-77
2022/05/02 09:31:20;;;;;;;17.77;7.88;;;;;;;17.21;57.69;101535.56;5085129;28;20164;-77
2022/05/02 09:33:50;;;;;;;17.55;9.10;;;;;;;17.35;57.88;101538.13;5077866;28;20052;-77
2022/05/02 09:36:48;;;;;;;16.60;8.02;;;;;;;17.53;56.63;101541.47;5070407;28;20072;-78
2022/05/02 09:39:29;;;;;;;19.55;9.57;;;;;;;17.72;55.80;101537.94;5073332;28;20048;-78
2022/05/02 09:42:08;;;;;;;18.45;8.95;;;;;;;17.84;55.68;101540.91;5084010;28;20125;-78
2022/05/02 09:51:13;;;;;;;17.92;9.40;;;;;;;18.35;53.36;101535.97;5071311;28;20058;-78
2022/05/02 09:54:11;;;;;;;16.90;8.77;;;;;;;18.41;51.94;101529.44;5072178;28;20059;-73
2022/05/02 09:56:43;;;;;;;19.15;9.15;;;;;;;18.52;52.89;101518.03;5076541;28;20059;-72
2022/05/02 09:59:24;;;;;;;21.98;9.32;;;;;;;18.57;51.63;101520.31;5085221;28;20054;-73
2022/05/02 10:02:17;;;;;;;16.73;7.55;;;;;;;18.61;51.87;101521.03;5071493;28;20052;-73
2022/05/02 10:05:16;;;;;;;19.00;8.45;;;;;;;18.71;52.13;101515.19;5072385;28;20082;-74
2022/05/02 10:07:55;;;;;;;15.80;8.05;;;;;;;18.77;52.00;101513.47;5080744;28;20040;-74
2022/05/02 10:10:56;;;;;;;14.48;7.65;;;;;;;18.99;52.53;101510.94;5074471;28;20086;-72
2022/05/02 10:14:00;;;;;;;16.85;8.05;;;;;;;19.15;50.86;101503.38;5083158;28;20127;-75
2022/05/02 10:16:49;;;;;;;17.27;8.60;;;;;;;19.31;51.45;101497.00;5072427;28;20810;-76
2022/05/02 10:19:33;;;;;;;16.52;7.72;;;;;;;19.48;51.07;101501.38;5074985;28;20056;-74
2022/05/02 10:22:23;;;;;;;16.88;8.23;;;;;;;19.66;49.81;101507.31;5071425;28;20143;-76
2022/05/02 10:25:05;;;;;;;18.95;8.75;;;;;;;19.77;49.47;101505.00;5074144;28;20155;-77
2022/05/02 10:27:41;;;;;;;16.70;8.30;;;;;;;19.80;48.63;101499.31;5074088;28;20516;-77
2022/05/02 10:30:12;;;;;;;16.35;8.40;;;;;;;19.85;48.09;101493.16;5086806;28;20135;-78
2022/05/02 10:32:56;;;;;;;19.17;9.18;;;;;;;19.85;47.85;101492.38;5079518;28;20112;-74
2022/05/02 10:35:25;;;;;;;17.25;8.15;;;;;;;19.97;48.10;101492.44;5086445;28;20536;-75
2022/05/02 10:37:56;;;;;;;16.95;8.20;;;;;;;20.09;47.35;101500.09;5084192;28;20044;-75
2022/05/02 10:40:39;;;;;;;17.35;8.77;;;;;;;20.21;47.24;101499.41;5074806;28;20049;-75
2022/05/02 10:43:07;;;;;;;18.98;8.45;;;;;;;20.28;47.60;101496.41;5069924;28;20045;-75
2022/05/02 10:45:36;;;;;;;16.00;8.35;;;;;;;20.23;46.28;101485.72;5078829;28;20044;-74
2022/05/02 10:48:06;;;;;;;17.35;7.72;;;;;;;20.33;46.47;101478.22;5073321;28;20044;-74
2022/05/02 10:50:36;;;;;;;15.85;7.55;;;;;;;20.60;46.86;101489.03;5081635;28;20060;-75
2022/05/02 10:53:31;;;;;;;15.63;7.72;;;;;;;20.77;45.48;101479.28;5070337;28;20114;-76
2022/05/02 10:56:19;;;;;;;15.32;7.63;;;;;;;20.93;44.95;101484.81;5082430;28;20421;-75
2022/05/02 10:58:47;;;;;;;19.60;7.88;;;;;;;21.07;45.18;101478.75;5074375;28;20063;-77
2022/05/02 11:01:22;;;;;;;18.10;8.70;;;;;;;21.20;43.83;101488.78;5073580;28;20811;-77
2022/05/02 11:04:10;;;;;;;14.70;7.93;;;;;;;21.33;43.91;101469.84;5066514;28;20053;-76
2022/05/02 11:06:55;;;;;;;17.85;8.85;;;;;;;21.34;43.66;101471.44;5072694;28;20106;-76
2022/05/02 11:09:35;;;;;;;17.67;7.10;;;;;;;21.55;42.48;101467.88;5073688;28;20106;-75
2022/05/02 11:12:07;;;;;;;20.65;8.35;;;;;;;21.70;41.97;101459.75;5070156;28;20054;-75
2022/05/02 11:14:58;;;;;;;17.00;7.50;;;;;;;21.82;41.14;101465.34;5067467;28;20147;-75
2022/05/02 11:17:50;;;;;;;14.85;7.35;;;;;;;22.09;41.48;101468.38;5063543;28;20059;-75
2022/05/02 11:20:43;;;;;;;17.55;8.25;;;;;;;22.11;41.31;101465.13;5070743;28;20127;-75
2022/05/02 11:23:29;;;;;;;18.30;8.23;;;;;;;22.08;41.85;101455.56;5069491;28;20059;-74
2022/05/02 11:26:14;;;;;;;22.95;9.30;;;;;;;22.28;41.09;101446.75;5070763;28;20048;-75
2022/05/02 11:29:09;;;;;;;12.38;6.85;;;;;;;22.39;40.92;101442.28;5079834;28;20056;-76
2022/05/02 11:32:01;;;;;;;14.52;7.20;;;;;;;22.59;40.24;101441.94;5080717;28;20075;-78
2022/05/02 11:34:37;;;;;;;18.77;8.10;;;;;;;22.79;39.87;101443.13;5080074;28;20148;-78
2022/05/02 11:37:08;;;;;;;17.13;8.15;;;;;;;22.98;40.51;101441.16;5068259;28;20097;-77
2022/05/02 11:39:48;;;;;;;21.30;8.07;;;;;;;23.11;39.00;101435.41;5071788;28;20416;-77
2022/05/02 11:42:21;;;;;;;17.73;8.05;;;;;;;23.34;39.36;101432.03;5075884;28;20139;-75
2022/05/02 11:44:59;;;;;;;16.15;7.70;;;;;;;23.62;38.60;101434.44;5072894;28;20056;-77
2022/05/02 11:47:40;;;;;;;17.55;7.68;;;;;;;23.90;37.31;101429.56;5077803;28;20049;-78
2022/05/02 11:50:10;;;;;;;16.60;8.27;;;;;;;24.09;37.38;101428.31;5069793;28;20630;-76
2022/05/02 11:52:48;;;;;;;16.48;8.45;;;;;;;23.92;37.06;101427.84;5081765;28;20163;-77
2022/05/02 11:55:18;;;;;;;16.83;8.50;;;;;;;23.38;38.18;101418.56;5079475;28;20500;-78
2022/05/02 11:57:50;;;;;;;15.85;7.93;;;;;;;23.48;38.59;101425.81;5081150;28;20115;-77
2022/05/02 12:00:17;;;;;;;16.77;7.70;;;;;;;23.83;38.00;101425.00;5075350;28;20159;-77
2022/05/02 12:03:04;;;;;;;17.38;8.30;;;;;;;24.11;37.08;101428.63;5074261;28;20127;-78
2022/05/02 12:05:38;;;;;;;16.52;8.23;;;;;;;24.22;36.47;101406.31;5071705;28;20062;-77
2022/05/02 12:08:10;;;;;;;18.05;7.93;;;;;;;24.73;37.38;101422.06;5077466;28;20116;-77
2022/05/02 12:10:47;;;;;;;15.43;7.20;;;;;;;25.29;35.60;101423.31;5076308;28;20527;-76
2022/05/02 12:13:15;;;;;;;13.95;7.63;;;;;;;25.92;35.43;101417.97;5081803;28;20048;-76
2022/05/02 12:16:11;;;;;;;18.02;8.23;;;;;;;26.54;33.18;101420.66;5079882;28;20142;-74
2022/05/02 12:18:45;;;;;;;17.05;8.20;;;;;;;26.33;33.49;101416.19;5066616;28;20113;-73
2022/05/02 12:21:31;;;;;;;13.95;7.20;;;;;;;26.06;34.62;101417.25;5072609;28;20055;-77
2022/05/02 12:24:00;;;;;;;17.40;8.30;;;;;;;26.00;35.14;101413.53;5084782;28;20136;-77
2022/05/02 12:26:28;;;;;;;14.82;7.40;;;;;;;25.75;35.25;101410.44;5086021;28;20151;-77
2022/05/02 12:28:58;;;;;;;16.20;7.38;;;;;;;25.30;34.77;101414.38;5081747;28;20601;-76
2022/05/02 12:31:26;;;;;;;15.40;7.15;;;;;;;25.05;35.45;101412.75;5076174;28;20053;-75
2022/05/02 12:34:06;;;;;;;14.77;7.47;;;;;;;24.64;34.56;101412.81;5081366;28;20047;-78
2022/05/02 12:36:45;;;;;;;14.57;7.53;;;;;;;24.33;34.95;101407.38;5081911;28;20075;-77
2022/05/02 12:39:17;;;;;;;12.40;7.32;;;;;;;24.18;35.89;101409.31;5082531;28;20102;-77
2022/05/02 12:41:52;;;;;;;15.27;7.43;;;;;;;23.96;35.87;101399.44;5082690;28;20116;-77
2022/05/02 12:44:25;;;;;;;16.98;7.78;;;;;;;24.52;35.71;101406.06;5078956;28;20059;-77
2022/05/02 12:46:53;;;;;;;15.55;6.72;;;;;;;24.84;33.58;101404.56;5077521;28;20074;-75
2022/05/02 12:49:40;;;;;;;13.57;6.80;;;;;;;25.61;32.72;101394.94;5073079;28;20076;-76
2022/05/02 12:52:07;;;;;;;15.80;7.18;;;;;;;26.34;32.76;101390.16;5072014;28;20445;-76
2022/05/02 12:54:34;;;;;;;17.23;7.05;;;;;;;26.21;32.87;101388.88;5075823;28;20587;-74
2022/05/02 13:02:52;;;;;;;15.18;7.32;;;;;;;26.94;31.59;101379.03;5082826;28;20136;-75
2022/05/02 13:05:22;;;;;;;13.52;6.47;;;;;;;27.40;31.65;101381.97;5077488;28;20069;-74
2022/05/02 13:07:53;;;;;;;15.25;7.05;;;;;;;27.68;30.82;101379.47;5081577;28;20478;-75
2022/05/02 13:10:28;;;;;;;14.15;6.82;;;;;;;27.96;30.60;101377.72;5083844;28;20425;-75
2022/05/02 13:13:05;;;;;;;15.48;7.85;;;;;;;28.42;30.07;101376.38;5077311;28;20058;-74
2022/05/02 13:15:41;;;;;;;15.90;7.07;;;;;;;28.08;27.89;101373.72;5074735;28;20048;-74
2022/05/02 13:18:18;;;;;;;14.93;7.53;;;;;;;27.51;30.13;101362.22;5085950;28;20126;-75
2022/05/02 13:21:11;;;;;;;15.55;7.63;;;;;;;27.82;29.32;101358.69;5086446;28;20128;-77
2022/05/02 13:23:40;;;;;;;14.25;6.93;;;;;;;28.24;30.50;101362.50;5079542;28;20986;-74
2022/05/02 13:26:29;;;;;;;13.88;7.43;;;;;;;28.88;29.35;101371.28;5086577;28;20052;-76
2022/05/02 13:29:17;;;;;;;12.80;6.82;;;;;;;29.44;28.62;101364.63;5091390;28;20122;-74
2022/05/02 13:31:44;;;;;;;10.75;5.90;;;;;;;29.82;28.84;101348.91;5075832;28;20056;-76
2022/05/02 13:34:32;;;;;;;12.80;6.93;;;;;;;29.65;27.22;101357.44;5074084;28;20108;-78
2022/05/02 13:37:26;;;;;;;14.80;7.72;;;;;;;29.68;27.36;101361.34;5083332;28;20047;-79
2022/05/02 13:39:56;;;;;;;13.68;6.18;;;;;;;29.11;28.28;101358.75;5080856;28;20059;-78
2022/05/02 13:42:36;;;;;;;15.38;7.35;;;;;;;28.40;28.25;101356.16;5084978;28;20132;-78
2022/05/02 13:45:10;;;;;;;12.57;6.50;;;;;;;27.74;28.46;101349.03;5081466;28;20570;-78
2022/05/02 13:48:25;;;;;;;12.55;6.95;;;;;;;27.11;28.83;101345.94;5085365;28;20064;-76
2022/05/02 13:51:06;;;;;;;15.05;6.38;;;;;;;26.62;30.24;101339.53;5074599;28;20060;-77
2022/05/02 13:53:45;;;;;;;12.75;6.93;;;;;;;26.27;30.46;101335.88;5082415;28;20056;-76
2022/05/02 13:56:33;;;;;;;16.05;6.50;;;;;;;25.95;30.75;101334.00;5076288;28;20132;-77
2022/05/02 13:58:59;;;;;;;14.02;7.22;;;;;;;25.85;31.56;101329.69;5074740;28;20136;-77
2022/05/02 14:01:58;;;;;;;13.18;6.43;;;;;;;25.49;30.97;101333.66;5079631;28;20853;-78
2022/05/02 14:07:05;;;;;;;14.30;6.82;;;;;;;25.07;31.84;101325.28;5078041;28;20419;-75
2022/05/02 14:09:46;;;;;;;12.70;6.22;;;;;;;24.63;32.21;101323.50;5077024;28;20046;-75
2022/05/02 14:12:23;;;;;;;12.68;6.82;;;;;;;24.21;32.96;101325.56;5076110;28;20448;-77
2022/05/02 14:15:03;;;;;;;14.30;8.45;;;;;;;23.99;33.43;101325.78;5075214;28;20048;-76
2022/05/02 14:17:36;;;;;;;14.77;6.50;;;;;;;23.90;33.92;101320.13;5079318;28;20060;-75
2022/05/02 14:20:09;;;;;;;14.40;6.93;;;;;;;23.66;34.09;101327.69;5073554;28;20056;-77
2022/05/02 14:22:38;;;;;;;15.90;6.97;;;;;;;23.57;34.35;101327.72;5076194;28;20127;-77
2022/05/02 14:25:14;;;;;;;12.40;6.45;;;;;;;23.60;34.49;101326.78;5071876;28;20138;-77
2022/05/02 14:27:57;;;;;;;13.20;6.78;;;;;;;23.51;34.49;101325.97;5075821;28;20048;-77
2022/05/02 14:30:25;;;;;;;16.75;7.95;;;;;;;23.43;34.50;101321.91;5073400;28;20056;-76
2022/05/02 14:32:52;;;;;;;14.70;7.00;;;;;;;23.33;34.48;101318.31;5075893;28;20045;-77
2022/05/02 14:35:24;;;;;;;14.48;8.15;;;;;;;23.30;34.37;101318.47;5075858;28;20086;-76
2022/05/02 14:37:55;;;;;;;15.13;7.07;;;;;;;23.24;34.48;101326.78;5075989;28;20040;-76
2022/05/02 14:40:23;;;;;;;13.63;7.18;;;;;;;23.17;34.83;101324.22;5088332;28;20491;-76
2022/05/02 14:42:51;;;;;;;19.42;7.88;;;;;;;23.29;34.85;101308.44;5076078;28;20062;-76
2022/05/02 14:45:19;;;;;;;15.68;7.30;;;;;;;23.72;35.20;101313.75;5074323;28;20135;-76
2022/05/02 14:47:49;;;;;;;14.07;6.93;;;;;;;24.28;34.41;101314.72;5080491;28;20051;-76
2022/05/02 14:50:19;;;;;;;12.88;6.82;;;;;;;24.93;33.69;101302.59;5075447;28;20044;-78
2022/05/02 14:52:48;;;;;;;13.82;7.10;;;;;;;25.29;32.88;101310.03;5077943;28;20068;-76
2022/05/02 14:55:19;;;;;;;11.32;5.80;;;;;;;25.70;32.65;101309.84;5080078;28;20052;-77
2022/05/02 14:57:48;;;;;;;14.43;6.85;;;;;;;25.97;32.31;101300.28;5075935;28;20047;-78
2022/05/02 15:00:18;;;;;;;14.00;6.88;;;;;;;26.15;31.78;101305.78;5073470;28;20135;-77
2022/05/02 15:02:47;;;;;;;14.20;7.03;;;;;;;25.97;31.04;101295.41;5079557;28;20101;-77
2022/05/02 15:05:18;;;;;;;15.38;6.28;;;;;;;25.98;31.74;101290.53;5067786;28;20048;-77
2022/05/02 15:07:57;;;;;;;15.85;7.45;;;;;;;25.69;31.71;101293.31;5077465;28;20048;-77
2022/05/02 15:10:57;;;;;;;15.07;6.75;;;;;;;25.08;32.06;101289.28;5073997;28;20370;-77
2022/05/02 15:13:27;;;;;;;17.08;7.30;;;;;;;24.82;32.54;101291.81;5077225;28;20067;-76
2022/05/02 15:16:09;;;;;;;17.75;7.00;;;;;;;24.57;32.68;101289.41;5080573;28;20064;-77
2022/05/02 15:22:24;;;;;;;16.02;7.45;;;;;;;23.96;33.39;101286.41;5077603;28;20173;-78
2022/05/02 15:25:07;;;;;;;15.23;7.53;;;;;;;23.64;33.96;101285.03;5076381;28;20055;-76
2022/05/02 15:36:44;;;;;;;12.95;6.72;;;;;;;23.28;34.55;101276.56;5075523;28;20752;-77
2022/05/02 15:39:22;;;;;;;18.02;7.95;;;;;;;23.18;34.70;101274.97;5077658;28;20048;-77
2022/05/02 15:41:49;;;;;;;13.55;7.20;;;;;;;23.09;34.99;101274.19;5077007;28;20234;-79
2022/05/02 15:44:21;;;;;;;17.85;7.32;;;;;;;22.94;35.11;101270.44;5075077;28;20054;-77
2022/05/02 15:47:01;;;;;;;13.15;7.13;;;;;;;22.84;35.17;101263.97;5078735;28;20035;-77
2022/05/02 15:49:33;;;;;;;15.93;7.75;;;;;;;22.83;35.39;101265.25;5090659;28;20132;-79
2022/05/02 15:52:01;;;;;;;12.52;7.18;;;;;;;22.85;35.05;101270.41;5077395;28;20496;-78
2022/05/02 15:54:28;;;;;;;14.93;7.28;;;;;;;22.77;35.27;101267.91;5074905;28;20045;-77
2022/05/02 15:56:57;;;;;;;15.40;7.35;;;;;;;22.79;35.35;101268.19;5078049;28;20138;-79
2022/05/02 15:59:37;;;;;;;14.45;7.45;;;;;;;22.70;35.09;101264.59;5078597;28;20101;-77
2022/05/02 16:02:09;;;;;;;14.48;6.90;;;;;;;22.62;35.20;101263.31;5075268;28;20045;-79
2022/05/02 16:04:38;;;;;;;14.07;7.45;;;;;;;22.60;35.34;101257.34;5076486;28;20044;-80
2022/05/02 16:12:54;;;;;;;16.70;7.75;;;;;;;22.31;35.97;101254.91;5073236;28;20076;-78
2022/05/02 16:15:24;;;;;;;16.52;7.43;;;;;;;22.25;36.37;101262.41;5076614;28;20052;-80
2022/05/02 16:17:52;;;;;;;14.02;6.47;;;;;;;22.23;36.36;101258.47;5069627;28;20048;-78
2022/05/02 16:20:20;;;;;;;13.77;7.13;;;;;;;22.20;36.16;101256.56;5081946;28;20990;-78
2022/05/02 16:22:48;;;;;;;13.50;6.60;;;;;;;22.15;36.53;101252.34;5077831;28;20056;-80
2022/05/02 16:25:27;;;;;;;16.52;7.65;;;;;;;22.04;36.64;101251.19;5069959;28;20052;-81
2022/05/02 16:27:55;;;;;;;16.25;7.15;;;;;;;21.95;36.37;101254.78;5068449;28;20051;-81
2022/05/02 16:30:26;;;;;;;14.75;7.35;;;;;;;21.87;36.70;101252.69;5071411;28;20049;-82
2022/05/02 16:32:54;;;;;;;14.60;6.38;;;;;;;21.79;37.08;101251.38;5068843;28;20076;-80
2022/05/02 16:35:23;;;;;;;13.23;6.20;;;;;;;21.73;36.98;101254.00;5078932;28;20048;-78
2022/05/02 16:37:53;;;;;;;13.48;6.15;;;;;;;21.70;37.24;101249.25;5071109;28;20051;-80
2022/05/02 16:40:28;;;;;;;14.38;6.63;;;;;;;21.53;37.64;101244.31;5078844;28;20582;-80
2022/05/02 16:43:07;;;;;;;13.70;6.40;;;;;;;21.46;37.83;101251.00;5082094;28;20056;-81
2022/05/02 16:45:35;;;;;;;14.60;6.70;;;;;;;21.42;37.73;101246.72;5078040;28;20139;-81
2022/05/02 16:48:09;;;;;;;16.30;7.00;;;;;;;21.41;37.82;101248.78;5086212;28;20054;-80
2022/05/02 16:50:40;;;;;;;15.63;7.63;;;;;;;21.40;37.81;101252.06;5087108;28;20064;-80
2022/05/02 16:53:08;;;;;;;15.63;7.78;;;;;;;21.34;37.83;101249.03;5077144;28;20127;-79
2022/05/02 16:55:38;;;;;;;16.52;7.15;;;;;;;21.33;37.83;101244.63;5088725;28;20052;-79
2022/05/02 16:58:07;;;;;;;15.13;7.13;;;;;;;21.30;38.08;101244.78;5083265;28;20055;-81
2022/05/02 17:00:36;;;;;;;11.88;6.22;;;;;;;21.26;37.82;101246.94;5088348;28;20134;-81
2022/05/02 17:03:08;;;;;;;15.70;7.43;;;;;;;21.22;38.12;101246.28;5069375;28;20056;-79
2022/05/02 17:05:41;;;;;;;15.10;7.03;;;;;;;21.14;38.06;101239.34;5072777;28;20167;-82
2022/05/02 17:08:12;;;;;;;15.45;7.70;;;;;;;21.14;38.20;101245.75;5071514;28;20155;-78
2022/05/02 17:10:47;;;;;;;14.20;6.90;;;;;;;21.11;38.47;101241.03;5076941;28;20170;-81
2022/05/02 17:13:22;;;;;;;12.95;6.78;;;;;;;21.06;38.52;101238.81;5076923;28;20052;-79
2022/05/02 17:15:59;;;;;;;16.20;7.38;;;;;;;21.03;38.24;101241.75;5077674;28;20133;-79
2022/05/02 17:18:30;;;;;;;15.27;7.22;;;;;;;21.00;38.75;101246.28;5080642;28;20132;-79
2022/05/02 17:21:00;;;;;;;12.95;6.88;;;;;;;20.94;38.59;101248.09;5074602;28;20053;-80
2022/05/02 17:23:35;;;;;;;16.60;8.05;;;;;;;20.89;38.82;101248.63;5080505;28;20168;-79
2022/05/02 17:26:04;;;;;;;14.50;7.68;;;;;;;20.87;38.92;101247.50;5087099;28;20056;-79
2022/05/02 17:28:33;;;;;;;14.32;6.88;;;;;;;20.80;39.29;101250.56;5078668;28;20059;-80
2022/05/02 17:31:02;;;;;;;15.52;6.95;;;;;;;20.78;39.38;101251.03;5078883;28;20563;-80
2022/05/02 17:33:46;;;;;;;15.05;7.75;;;;;;;20.75;39.88;101248.34;5080161;28;20055;-79
2022/05/02 17:36:15;;;;;;;16.83;7.07;;;;;;;20.70;39.70;101251.72;5082987;28;20424;-78
2022/05/02 17:38:49;;;;;;;14.52;6.95;;;;;;;20.64;39.70;101254.34;5081531;28;20059;-79
2022/05/02 17:41:18;;;;;;;17.08;7.15;;;;;;;20.56;40.23;101249.41;5083176;28;20751;-81
2022/05/02 17:43:58;;;;;;;17.77;6.88;;;;;;;20.50;40.41;101256.81;5076135;28;20048;-80
2022/05/02 17:46:33;;;;;;;15.23;6.85;;;;;;;20.41;40.49;101254.69;5077408;28;20058;-79
2022/05/02 17:49:09;;;;;;;12.65;7.30;;;;;;;20.28;41.04;101257.53;5077202;28;20131;-81
2022/05/02 17:51:36;;;;;;;;;;;;;;;20.19;41.85;101254.59;5077825;28;20118;-79
2022/05/02 17:54:08;;;;;;;13.02;6.55;;;;;;;20.19;41.06;101260.22;5080591;28;20007;-79
2022/05/02 17:56:38;;;;;;;13.23;6.45;;;;;;;20.14;41.30;101262.81;5073101;28;20143;-79
2022/05/02 17:59:11;;;;;;;17.00;7.50;;;;;;;20.05;41.57;101257.84;5083612;28;20094;-79
2022/05/02 18:01:38;;;;;;;15.02;6.97;;;;;;;19.96;41.25;101265.38;5080600;28;20139;-79
2022/05/02 18:04:15;;;;;;;13.07;6.43;;;;;;;19.85;42.57;101270.53;5078738;28;20089;-79
2022/05/02 18:06:43;;;;;;;11.95;6.07;;;;;;;19.72;42.43;101270.50;5080620;28;20058;-80
2022/05/02 18:09:14;;;;;;;15.23;5.82;;;;;;;19.61;43.54;101266.44;5077018;28;20357;-79
2022/05/02 18:14:27;;;;;;;15.20;6.43;;;;;;;19.40;43.46;101276.25;5073293;28;20062;-78
2022/05/02 18:17:31;;;;;;;14.25;5.90;;;;;;;19.26;45.72;101279.47;5081443;28;20077;-79
2022/05/02 18:20:04;;;;;;;12.75;6.43;;;;;;;19.13;44.84;101272.97;5077924;28;20090;-82
2022/05/02 18:22:34;;;;;;;18.77;7.30;;;;;;;19.10;44.57;101273.84;5082595;28;20065;-79
2022/05/02 18:25:04;;;;;;;15.43;6.53;;;;;;;19.05;44.36;101271.59;5084505;28;20044;-79
2022/05/02 18:27:33;;;;;;;12.27;6.63;;;;;;;19.03;44.44;101284.50;5087090;28;20044;-78
2022/05/02 18:30:03;;;;;;;15.40;6.60;;;;;;;18.97;44.45;101287.03;5073350;28;20040;-79
2022/05/02 18:32:38;;;;;;;14.77;7.53;;;;;;;18.86;45.26;101282.97;5076179;28;20493;-79
2022/05/02 18:38:14;;;;;;;13.80;6.88;;;;;;;18.61;47.41;101285.59;5082036;28;20114;-79
2022/05/02 18:40:52;;;;;;;13.75;6.75;;;;;;;18.50;48.52;101297.06;5082774;28;20105;-79
2022/05/02 18:43:25;;;;;;;21.55;7.07;;;;;;;18.40;48.09;101284.09;5080050;28;20167;-78
2022/05/02 18:54:35;;;;;;;10.80;5.75;;;;;;;18.08;49.91;101298.03;5076172;28;20010;-75
2022/05/02 18:57:09;;;;;;;17.25;7.90;;;;;;;17.99;50.53;101306.25;5078286;28;20079;-76
2022/05/02 18:59:38;;;;;;;15.30;7.00;;;;;;;17.94;50.18;101298.34;5072435;28;20163;-77
2022/05/02 19:02:06;;;;;;;16.73;8.35;;;;;;;17.86;50.52;101306.09;5081998;28;20048;-75
2022/05/02 19:04:41;;;;;;;21.13;13.07;;;;;;;17.75;51.43;101313.16;5083441;28;20044;-74
2022/05/02 19:07:13;;;;;;;22.83;10.68;;;;;;;17.65;50.64;101306.56;5077777;28;20048;-75
2022/05/02 19:09:41;;;;;;;16.45;8.57;;;;;;;17.55;52.29;101315.97;5072347;28;20572;-76
2022/05/02 19:12:10;;;;;;;15.32;8.07;;;;;;;17.50;52.23;101321.25;5075493;28;20526;-76
2022/05/02 19:14:49;;;;;;;18.77;8.52;;;;;;;17.41;53.44;101319.00;5079096;28;20475;-77
2022/05/02 19:17:19;;;;;;;18.25;9.68;;;;;;;17.34;53.40;101321.94;5069149;28;20819;-77
2022/05/02 19:19:45;;;;;;;22.00;10.00;;;;;;;17.24;53.49;101328.53;5078619;28;20089;-77
2022/05/02 19:22:15;;;;;;;16.35;8.63;;;;;;;17.19;53.75;101323.44;5071831;28;20048;-79
2022/05/02 19:25:00;;;;;;;17.67;10.90;;;;;;;17.06;54.40;101330.06;5077687;28;20139;-77
2022/05/02 19:27:28;;;;;;;15.90;8.82;;;;;;;16.96;54.31;101325.44;5079081;28;20072;-76
2022/05/02 19:30:03;;;;;;;18.88;10.07;;;;;;;16.89;54.99;101322.78;5087686;28;20040;-78
2022/05/02 19:32:40;;;;;;;19.42;8.57;;;;;;;16.78;56.43;101327.78;5077050;28;20139;-77
2022/05/02 19:40:48;;;;;;;20.75;10.10;;;;;;;16.56;58.23;101338.50;5079865;28;20425;-77
2022/05/02 19:43:18;;;;;;;25.48;12.45;;;;;;;16.49;57.39;101335.81;5074229;28;20052;-76
2022/05/02 19:45:49;;;;;;;21.85;12.35;;;;;;;16.44;57.21;101335.50;5072810;28;20056;-76
2022/05/02 19:48:18;;;;;;;22.05;11.38;;;;;;;16.40;56.44;101340.34;5078420;28;20055;-75
2022/05/02 19:50:45;;;;;;;23.60;11.45;;;;;;;16.36;56.97;101342.38;5080118;28;20440;-75
2022/05/02 19:53:15;;;;;;;19.95;11.07;;;;;;;16.27;56.38;101340.09;5075254;28;20086;-77
2022/05/02 19:55:45;;;;;;;20.25;11.70;;;;;;;16.22;57.38;101339.78;5079393;28;20140;-75
2022/05/02 19:58:13;;;;;;;22.13;11.45;;;;;;;16.15;58.17;101337.09;5081875;28;20086;-76
2022/05/02 20:00:42;;;;;;;20.02;12.02;;;;;;;16.12;58.30;101340.72;5072815;28;20044;-77
2022/05/02 20:03:11;;;;;;;19.33;10.70;;;;;;;16.05;58.55;101347.19;5076465;28;20131;-76
2022/05/02 20:05:44;;;;;;;24.17;11.43;;;;;;;16.00;59.72;101349.69;5091859;28;20052;-74
2022/05/02 20:08:11;;;;;;;21.40;10.43;;;;;;;15.94;59.06;101348.56;5080600;28;20093;-75
2022/05/02 20:10:38;;;;;;;18.25;9.13;;;;;;;15.89;59.52;101346.25;5079226;28;20577;-76
2022/05/02 20:13:05;;;;;;;22.73;9.15;;;;;;;15.84;59.77;101347.47;5077759;28;20051;-75
2022/05/02 20:15:32;;;;;;;21.70;8.82;;;;;;;15.83;60.35;101359.06;5078411;28;20062;-76
2022/05/02 20:17:59;;;;;;;21.05;8.93;;;;;;;15.74;62.88;101364.34;5073120;28;20488;-77
2022/05/02 20:20:26;;;;;;;17.63;9.23;;;;;;;15.68;61.82;101361.22;5077232;28;20051;-75
2022/05/02 20:22:53;;;;;;;19.30;10.00;;;;;;;15.62;62.27;101362.13;5075244;28;20132;-77
2022/05/02 20:25:19;;;;;;;23.30;10.93;;;;;;;15.55;64.10;101368.53;5074795;28;20064;-75
2022/05/02 20:27:46;;;;;;;25.63;13.15;;;;;;;15.43;64.24;101358.72;5082515;28;20080;-75
2022/05/02 20:30:12;;;;;;;60.28;29.02;;;;;;;15.39;63.05;101362.75;5078893;28;20147;-77
2022/05/02 20:38:15;;;;;;;24.38;14.52;;;;;;;15.18;64.46;101349.78;5072964;28;20048;-78
2022/05/02 20:40:47;;;;;;;25.63;16.60;;;;;;;15.13;64.50;101349.44;5074633;28;20159;-76
2022/05/02 20:43:23;;;;;;;26.58;15.43;;;;;;;15.06;64.58;101350.28;5078107;28;20052;-75
2022/05/02 20:45:52;;;;;;;22.60;13.73;;;;;;;14.99;65.36;101358.72;5074067;28;20047;-76
2022/05/02 20:48:26;;;;;;;34.00;18.83;;;;;;;14.85;66.12;101342.13;5077290;28;20048;-76
2022/05/02 20:50:56;;;;;;;24.27;14.23;;;;;;;14.86;66.36;101359.66;5074430;28;20114;-76
2022/05/02 20:53:24;;;;;;;24.02;12.82;;;;;;;14.75;66.21;101359.72;5077400;28;20439;-78
2022/05/02 20:55:55;;;;;;;21.67;13.02;;;;;;;14.69;66.80;101363.38;5080428;28;20493;-76
2022/05/02 20:58:23;;;;;;;20.27;9.38;;;;;;;14.65;68.13;101362.59;5068876;28;20143;-76
2022/05/02 21:00:50;;;;;;;17.67;9.45;;;;;;;14.63;67.68;101367.78;5086214;28;20143;-76
2022/05/02 21:03:17;;;;;;;17.73;8.60;;;;;;;14.59;68.39;101367.81;5079067;28;20122;-76
2022/05/02 21:05:47;;;;;;;15.95;8.75;;;;;;;14.54;67.51;101375.78;5079842;28;20159;-80
2022/05/02 21:08:22;;;;;;;17.23;8.70;;;;;;;14.48;70.02;101383.78;5082968;28;20463;-77
2022/05/02 21:11:14;;;;;;;17.98;9.45;;;;;;;14.40;70.71;101382.25;5079443;28;20048;-76
2022/05/02 21:13:43;;;;;;;19.80;10.63;;;;;;;14.35;70.48;101377.09;5077398;28;20084;-77
2022/05/02 21:16:12;;;;;;;17.98;10.00;;;;;;;14.25;73.26;101374.41;5074943;28;20056;-76